createdAt,value
2019-04-21T00:00:37.419Z,47.40
2019-04-21T00:03:10.012Z,48.00
2019-04-21T00:05:57.419Z,48.00
2019-04-21T00:08:33.324Z,48.00
2019-04-21T00:10:56.563Z,48.90
2019-04-21T00:13:21.094Z,47.30
2019-04-21T00:15:40.752Z,47.50
2019-04-21T00:18:15.573Z,48.30
2019-04-21T00:20:49.709Z,48.10
2019-04-21T00:23:30.076Z,48.00
2019-04-21T00:25:52.936Z,47.60
2019-04-21T00:28:39.032Z,49.10
2019-04-21T00:31:01.877Z,48.30
2019-04-21T00:33:17.660Z,48.60
2019-04-21T00:35:49.913Z,48.90
2019-04-21T00:38:32.364Z,48.70
2019-04-21T00:41:00.013Z,48.60
2019-04-21T00:43:24.143Z,48.70
2019-04-21T00:45:48.137Z,49.20
2019-04-21T00:48:30.428Z,48.80
2019-04-21T00:51:16.397Z,49.00
2019-04-21T00:53:43.582Z,48.70
2019-04-21T00:56:08.964Z,48.70
2019-04-21T00:58:53.686Z,49.70
2019-04-21T01:01:04.399Z,48.30
2019-04-21T01:03:37.353Z,49.40
2019-04-21T01:06:04.136Z,49.80
2019-04-21T01:08:31.141Z,49.70
2019-04-21T01:10:53.199Z,49.00
2019-04-21T01:13:36.338Z,50.00
2019-04-21T01:16:21.208Z,49.90
2019-04-21T01:18:32.563Z,50.10
2019-04-21T01:20:39.366Z,50.70
2019-04-21T01:23:06.716Z,51.30
2019-04-21T01:25:43.714Z,48.70
2019-04-21T01:28:18.830Z,49.20
2019-04-21T01:30:53.455Z,51.30
2019-04-21T01:33:27.787Z,50.50
2019-04-21T01:35:48.503Z,51.10
2019-04-21T01:38:31.595Z,52.20
2019-04-21T01:40:57.159Z,51.80
2019-04-21T01:43:21.195Z,50.80
2019-04-21T01:45:48.663Z,51.50
2019-04-21T01:48:15.902Z,50.90
2019-04-21T01:50:47.230Z,51.60
2019-04-21T01:53:56.487Z,52.60
2019-04-21T01:56:51.256Z,51.00
2019-04-21T01:59:12.756Z,51.70
2019-04-21T02:01:59.241Z,50.90
2019-04-21T02:04:36.289Z,51.40
2019-04-21T02:07:07.185Z,51.20
2019-04-21T02:09:40.088Z,51.40
2019-04-21T02:12:10.603Z,51.80
2019-04-21T02:14:40.897Z,52.00
2019-04-21T02:17:09.922Z,51.30
2019-04-21T02:19:31.590Z,51.70
2019-04-21T02:21:59.577Z,51.40
2019-04-21T02:24:42.084Z,50.80
2019-04-21T02:27:07.623Z,51.10
2019-04-21T02:29:33.033Z,52.00
2019-04-21T02:32:18.008Z,52.30
2019-04-21T02:34:52.801Z,52.90
2019-04-21T02:37:28.475Z,53.40
2019-04-21T02:39:49.060Z,52.30
2019-04-21T02:44:44.263Z,54.10
2019-04-21T02:47:12.229Z,54.30
2019-04-21T02:50:06.083Z,54.60
2019-04-21T02:52:11.663Z,54.80
2019-04-21T02:57:08.620Z,54.50
2019-04-21T03:02:35.024Z,54.60
2019-04-21T03:05:25.684Z,55.20
2019-04-21T03:10:17.780Z,54.40
2019-04-21T03:13:01.309Z,53.80
2019-04-21T03:17:48.848Z,53.30
2019-04-21T03:20:18.974Z,54.60
2019-04-21T03:22:43.844Z,56.00
2019-04-21T03:25:25.305Z,55.70
2019-04-21T03:27:52.804Z,55.70
2019-04-21T03:30:28.186Z,56.20
2019-04-21T03:33:24.639Z,56.60
2019-04-21T03:37:36.452Z,57.20
2019-04-21T03:40:16.223Z,57.60
2019-04-21T03:42:42.378Z,57.70
2019-04-21T03:45:17.199Z,58.30
2019-04-21T03:47:34.515Z,58.30
2019-04-21T04:06:09.576Z,58.00
2019-04-21T04:08:52.373Z,57.80
2019-04-21T04:11:19.596Z,57.20
2019-04-21T04:23:45.324Z,59.00
2019-04-21T04:28:49.470Z,60.10
2019-04-21T04:31:15.257Z,58.90
2019-04-21T04:33:48.819Z,59.00
2019-04-21T04:38:46.815Z,59.00
2019-04-21T04:41:41.649Z,59.30
2019-04-21T04:44:13.673Z,59.50
2019-04-21T04:46:52.238Z,60.10
2019-04-21T04:49:18.285Z,58.80
2019-04-21T04:54:03.892Z,59.20
2019-04-21T04:56:40.442Z,59.60
2019-04-21T04:59:23.041Z,58.50
2019-04-21T05:06:42.482Z,57.00
2019-04-21T05:09:07.740Z,57.90
2019-04-21T05:14:18.336Z,58.60
2019-04-21T05:16:44.625Z,58.60
2019-04-21T05:19:10.558Z,59.00
2019-04-21T05:23:51.051Z,60.40
2019-04-21T05:26:14.457Z,59.20
2019-04-21T05:28:44.924Z,58.90
2019-04-21T05:32:12.942Z,59.20
2019-04-21T05:34:30.513Z,59.20
2019-04-21T05:37:18.790Z,60.00
2019-04-21T05:39:42.004Z,59.80
2019-04-21T05:42:07.738Z,59.10
2019-04-21T05:44:58.106Z,60.20
2019-04-21T05:47:25.015Z,61.70
2019-04-21T05:50:07.542Z,61.70
2019-04-21T05:52:46.007Z,60.80
2019-04-21T05:55:29.395Z,62.70
2019-04-21T05:57:54.400Z,61.70
2019-04-21T06:00:23.677Z,61.00
2019-04-21T06:02:59.247Z,61.00
2019-04-21T06:05:28.645Z,60.20
2019-04-21T06:07:52.224Z,60.10
2019-04-21T06:10:27.140Z,59.60
2019-04-21T06:12:59.241Z,59.60
2019-04-21T06:15:32.111Z,58.70
2019-04-21T06:17:59.320Z,58.80
2019-04-21T06:20:27.634Z,58.60
2019-04-21T06:22:56.518Z,59.30
2019-04-21T06:27:59.966Z,59.90
2019-04-21T06:30:33.219Z,60.60
2019-04-21T06:36:10.159Z,60.10
2019-04-21T06:38:26.501Z,59.40
2019-04-21T06:40:50.180Z,59.20
2019-04-21T06:43:28.152Z,59.00
2019-04-21T06:45:51.121Z,58.90
2019-04-21T06:48:20.744Z,59.00
2019-04-21T06:50:46.685Z,59.40
2019-04-21T06:53:11.897Z,58.00
2019-04-21T06:55:37.808Z,58.70
2019-04-21T06:58:10.397Z,59.40
2019-04-21T07:00:37.275Z,57.10
2019-04-21T07:03:14.437Z,57.50
2019-04-21T07:05:44.095Z,56.90
2019-04-21T07:08:23.253Z,57.40
2019-04-21T07:10:37.093Z,58.40
2019-04-21T07:13:03.199Z,58.60
2019-04-21T07:15:39.933Z,59.10
2019-04-21T07:18:04.548Z,59.40
2019-04-21T07:20:36.620Z,58.60
2019-04-21T07:23:13.318Z,58.90
2019-04-21T07:25:39.101Z,57.60
2019-04-21T07:28:05.687Z,58.30
2019-04-21T07:30:51.555Z,57.90
2019-04-21T07:33:19.080Z,58.80
2019-04-21T07:35:31.962Z,59.60
2019-04-21T07:38:02.901Z,59.40
2019-04-21T07:40:30.476Z,59.20
2019-04-21T07:43:00.172Z,59.20
2019-04-21T07:45:27.816Z,58.00
2019-04-21T07:48:16.045Z,57.80
2019-04-21T07:51:07.581Z,57.00
2019-04-21T07:53:43.706Z,56.20
2019-04-21T07:55:49.620Z,56.30
2019-04-21T07:58:35.381Z,57.80
2019-04-21T08:01:12.062Z,56.10
2019-04-21T08:03:35.454Z,56.40
2019-04-21T08:06:02.329Z,55.70
2019-04-21T08:08:36.771Z,56.70
2019-04-21T08:11:07.337Z,58.20
2019-04-21T08:16:07.382Z,56.00
2019-04-21T08:18:33.437Z,55.90
2019-04-21T08:21:02.693Z,56.70
2019-04-21T08:23:31.495Z,56.50
2019-04-21T08:26:06.564Z,56.10
2019-04-21T08:28:35.419Z,56.50
2019-04-21T08:31:01.785Z,57.20
2019-04-21T08:33:55.421Z,56.50
2019-04-21T08:36:13.013Z,57.30
2019-04-21T08:38:27.787Z,56.90
2019-04-21T08:41:03.602Z,56.70
2019-04-21T08:43:35.708Z,59.50
2019-04-21T08:46:01.985Z,57.80
2019-04-21T08:48:31.743Z,54.80
2019-04-21T08:51:06.242Z,54.40
2019-04-21T08:53:35.702Z,53.10
2019-04-21T08:56:10.024Z,53.20
2019-04-21T08:59:00.742Z,53.90
2019-04-21T09:01:33.032Z,53.80
2019-04-21T09:04:01.217Z,51.90
2019-04-21T09:06:43.148Z,53.70
2019-04-21T09:09:07.848Z,52.90
2019-04-21T09:11:28.780Z,53.00
2019-04-21T09:14:03.933Z,53.50
2019-04-21T09:16:31.246Z,50.10
2019-04-21T09:18:53.697Z,52.90
2019-04-21T09:21:31.528Z,49.70
2019-04-21T09:23:58.090Z,53.10
2019-04-21T09:26:29.298Z,51.60
2019-04-21T09:28:52.200Z,54.00
2019-04-21T09:31:10.730Z,53.70
2019-04-21T09:33:45.440Z,50.50
2019-04-21T09:36:13.063Z,50.80
2019-04-21T09:38:41.994Z,49.50
2019-04-21T09:41:15.973Z,50.90
2019-04-21T09:43:43.636Z,51.10
2019-04-21T09:46:08.400Z,50.50
2019-04-21T09:48:49.119Z,51.70
2019-04-21T09:51:07.171Z,51.40
2019-04-21T09:53:38.108Z,48.00
2019-04-21T09:56:08.631Z,46.30
2019-04-21T09:58:40.019Z,46.70
2019-04-21T10:01:12.188Z,48.10
2019-04-21T10:03:43.496Z,46.60
2019-04-21T10:06:02.663Z,45.70
2019-04-21T10:08:30.141Z,44.90
2019-04-21T10:10:59.240Z,43.70
2019-04-21T10:13:27.441Z,46.40
2019-04-21T10:16:13.249Z,45.40
2019-04-21T10:18:41.059Z,43.50
2019-04-21T10:21:09.620Z,43.00
2019-04-21T10:23:37.265Z,43.70
2019-04-21T10:26:04.755Z,41.90
2019-04-21T10:28:32.941Z,42.70
2019-04-21T10:31:00.931Z,44.40
2019-04-21T10:33:28.618Z,42.70
2019-04-21T10:35:57.091Z,42.00
2019-04-21T10:38:33.149Z,42.20
2019-04-21T10:40:54.251Z,41.20
2019-04-21T10:43:23.672Z,43.20
2019-04-21T10:45:50.860Z,39.50
2019-04-21T10:48:20.931Z,41.10
2019-04-21T10:50:49.443Z,39.30
2019-04-21T10:53:23.073Z,37.30
2019-04-21T10:56:03.179Z,38.40
2019-04-21T10:58:24.454Z,37.70
2019-04-21T11:01:00.180Z,38.70
2019-04-21T11:03:35.353Z,37.60
2019-04-21T11:06:03.362Z,36.20
2019-04-21T11:08:37.504Z,34.00
2019-04-21T11:11:01.529Z,35.40
2019-04-21T11:13:30.776Z,37.30
2019-04-21T11:15:59.296Z,32.80
2019-04-21T11:18:28.126Z,35.90
2019-04-21T11:20:58.555Z,32.70
2019-04-21T11:23:28.943Z,30.30
2019-04-21T11:25:57.986Z,33.50
2019-04-21T11:28:27.083Z,32.10
2019-04-21T11:30:54.952Z,32.70
2019-04-21T11:33:22.897Z,32.20
2019-04-21T11:35:51.240Z,31.60
2019-04-21T11:38:26.670Z,31.30
2019-04-21T11:40:53.979Z,31.50
2019-04-21T11:43:22.033Z,32.70
2019-04-21T11:45:51.016Z,30.20
2019-04-21T11:48:28.448Z,29.40
2019-04-21T11:50:59.230Z,30.80
2019-04-21T11:53:30.653Z,28.10
2019-04-21T11:56:00.735Z,26.60
2019-04-21T11:58:29.875Z,27.10
2019-04-21T12:00:59.986Z,28.10
2019-04-21T12:03:27.718Z,27.70
2019-04-21T12:05:55.308Z,24.50
2019-04-21T12:08:31.108Z,25.90
2019-04-21T12:10:53.515Z,26.90
2019-04-21T12:13:22.355Z,27.30
2019-04-21T12:15:50.018Z,24.90
2019-04-21T12:18:17.894Z,24.40
2019-04-21T12:20:45.716Z,25.30
2019-04-21T12:23:14.331Z,25.00
2019-04-21T12:25:45.206Z,26.40
2019-04-21T12:28:14.284Z,26.60
2019-04-21T12:30:45.190Z,24.90
2019-04-21T12:33:32.373Z,25.20
2019-04-21T12:36:00.014Z,26.30
2019-04-21T12:38:35.371Z,25.70
2019-04-21T12:40:57.128Z,24.90
2019-04-21T12:43:24.626Z,23.60
2019-04-21T12:45:53.779Z,26.60
2019-04-21T12:48:22.209Z,24.70
2019-04-21T12:50:49.911Z,25.10
2019-04-21T12:53:19.255Z,25.80
2019-04-21T12:55:48.062Z,23.40
2019-04-21T12:58:17.194Z,22.60
2019-04-21T13:00:44.963Z,24.40
2019-04-21T13:03:13.969Z,23.20
2019-04-21T13:05:41.683Z,21.90
2019-04-21T13:08:09.298Z,23.90
2019-04-21T13:10:38.146Z,23.40
2019-04-21T13:13:05.967Z,21.70
2019-04-21T13:15:33.683Z,22.50
2019-04-21T13:18:02.591Z,20.40
2019-04-21T13:20:30.732Z,20.30
2019-04-21T13:22:59.508Z,20.80
2019-04-21T13:25:27.826Z,20.20
2019-04-21T13:27:56.508Z,22.90
2019-04-21T13:30:24.253Z,22.50
2019-04-21T13:32:53.421Z,20.80
2019-04-21T13:35:21.261Z,19.80
2019-04-21T13:37:50.615Z,18.60
2019-04-21T13:40:56.850Z,19.20
2019-04-21T13:43:12.311Z,19.30
2019-04-21T13:45:39.865Z,18.60
2019-04-21T13:48:08.400Z,17.80
2019-04-21T13:50:37.209Z,18.30
2019-04-21T13:53:06.984Z,18.50
2019-04-21T13:55:36.856Z,17.30
2019-04-21T13:58:06.256Z,17.50
2019-04-21T14:00:34.210Z,17.60
2019-04-21T14:03:02.950Z,17.30
2019-04-21T14:05:32.655Z,17.30
2019-04-21T14:08:00.988Z,17.30
2019-04-21T14:10:29.208Z,18.10
2019-04-21T14:12:58.337Z,17.90
2019-04-21T14:15:26.332Z,18.90
2019-04-21T14:17:54.850Z,16.90
2019-04-21T14:20:23.111Z,17.60
2019-04-21T14:22:51.838Z,18.10
2019-04-21T14:25:19.706Z,18.00
2019-04-21T14:27:50.203Z,19.00
2019-04-21T14:30:18.582Z,17.90
2019-04-21T14:32:47.528Z,15.30
2019-04-21T14:35:16.714Z,17.10
2019-04-21T14:37:44.545Z,17.90
2019-04-21T14:40:19.073Z,17.10
2019-04-21T14:42:42.444Z,16.30
2019-04-21T14:45:16.927Z,18.80
2019-04-21T14:48:19.144Z,18.30
2019-04-21T14:51:04.549Z,16.40
2019-04-21T14:53:41.533Z,17.20
2019-04-21T14:56:09.488Z,16.70
2019-04-21T14:58:37.189Z,18.70
2019-04-21T15:01:06.059Z,17.20
2019-04-21T15:03:34.204Z,16.90
2019-04-21T15:06:03.281Z,15.80
2019-04-21T15:08:31.290Z,17.40
2019-04-21T15:10:59.264Z,18.40
2019-04-21T15:13:27.884Z,19.00
2019-04-21T15:15:56.283Z,17.70
2019-04-21T15:18:24.231Z,15.60
2019-04-21T15:20:51.571Z,16.50
2019-04-21T15:23:20.461Z,15.30
2019-04-21T15:25:50.237Z,14.90
2019-04-21T15:28:18.072Z,14.90
2019-04-21T15:30:47.061Z,15.40
2019-04-21T15:33:16.200Z,15.50
2019-04-21T15:35:44.966Z,16.90
2019-04-21T15:38:13.906Z,18.50
2019-04-21T15:40:49.713Z,16.70
2019-04-21T15:43:10.884Z,16.60
2019-04-21T15:45:39.030Z,17.40
2019-04-21T15:48:07.721Z,16.90
2019-04-21T15:50:35.860Z,16.60
2019-04-21T15:53:05.643Z,16.50
2019-04-21T15:55:41.880Z,17.70
2019-04-21T15:58:30.354Z,17.70
2019-04-21T16:01:10.394Z,17.90
2019-04-21T16:03:38.572Z,17.30
2019-04-21T16:06:07.637Z,15.90
2019-04-21T16:08:35.371Z,17.10
2019-04-21T16:11:05.961Z,15.90
2019-04-21T16:13:33.993Z,16.40
2019-04-21T16:16:02.252Z,15.50
2019-04-21T16:18:30.117Z,15.60
2019-04-21T16:20:59.939Z,14.70
2019-04-21T16:23:28.583Z,15.90
2019-04-21T16:25:57.048Z,17.40
2019-04-21T16:28:24.668Z,17.00
2019-04-21T16:30:54.070Z,16.40
2019-04-21T16:33:23.141Z,16.70
2019-04-21T16:35:51.678Z,16.50
2019-04-21T16:38:19.721Z,17.00
2019-04-21T16:40:54.347Z,16.80
2019-04-21T16:43:16.857Z,17.20
2019-04-21T16:45:44.483Z,17.70
2019-04-21T16:48:12.984Z,17.90
2019-04-21T16:50:41.511Z,17.10
2019-04-21T16:53:19.911Z,18.20
2019-04-21T16:56:00.390Z,17.40
2019-04-21T16:58:34.797Z,17.70
2019-04-21T17:01:11.018Z,16.50
2019-04-21T17:03:36.747Z,17.70
2019-04-21T17:06:05.162Z,18.60
2019-04-21T17:08:33.867Z,18.70
2019-04-21T17:11:11.928Z,18.90
2019-04-21T17:13:32.085Z,18.60
2019-04-21T17:16:16.440Z,19.10
2019-04-21T17:18:43.221Z,19.70
2019-04-21T17:21:01.157Z,19.60
2019-04-21T17:23:29.425Z,17.60
2019-04-21T17:25:57.220Z,20.00
2019-04-21T17:28:25.754Z,22.40
2019-04-21T17:30:54.565Z,23.40
2019-04-21T17:33:26.912Z,24.30
2019-04-21T17:35:51.352Z,24.60
2019-04-21T17:38:19.078Z,25.10
2019-04-21T17:40:47.557Z,25.50
2019-04-21T17:43:17.936Z,26.00
2019-04-21T17:45:44.957Z,26.30
2019-04-21T17:48:15.911Z,27.40
2019-04-21T17:50:47.519Z,28.20
2019-04-21T17:53:26.546Z,28.40
2019-04-21T17:55:54.073Z,28.50
2019-04-21T17:58:34.177Z,29.60
2019-04-21T18:01:12.893Z,29.80
2019-04-21T18:05:59.406Z,28.50
2019-04-21T18:08:29.523Z,30.20
2019-04-21T18:10:57.374Z,31.30
2019-04-21T18:13:17.590Z,31.90
2019-04-21T18:15:58.613Z,32.40
2019-04-21T18:18:12.966Z,33.50
2019-04-21T18:20:44.014Z,33.90
2019-04-21T18:23:39.872Z,32.90
2019-04-21T18:26:02.953Z,32.50
2019-04-21T18:28:26.347Z,32.90
2019-04-21T18:31:14.624Z,33.60
2019-04-21T18:34:02.202Z,33.80
2019-04-21T18:36:34.826Z,33.80
2019-04-21T18:39:39.262Z,34.00
2019-04-21T18:42:21.289Z,34.00
2019-04-21T18:45:28.101Z,35.20
2019-04-21T18:47:55.478Z,35.40
2019-04-21T18:50:53.269Z,35.10
2019-04-21T18:53:37.891Z,35.60
2019-04-21T18:55:56.510Z,35.40
2019-04-21T18:58:20.134Z,35.50
2019-04-21T19:00:48.774Z,35.90
2019-04-21T19:03:25.345Z,35.70
2019-04-21T19:05:54.411Z,36.10
2019-04-21T19:08:40.543Z,36.70
2019-04-21T19:11:08.790Z,36.80
2019-04-21T19:13:57.204Z,37.60
2019-04-21T19:16:31.342Z,37.90
2019-04-21T19:18:50.547Z,37.40
2019-04-21T19:21:08.819Z,37.70
2019-04-21T19:23:47.233Z,38.10
2019-04-21T19:26:23.321Z,38.20
2019-04-21T19:28:45.952Z,37.40
2019-04-21T19:31:11.559Z,36.20
2019-04-21T19:33:33.101Z,35.60
2019-04-21T19:35:53.098Z,35.20
2019-04-21T19:38:30.567Z,34.40
2019-04-21T19:41:14.431Z,34.60
2019-04-21T19:43:40.892Z,34.40
2019-04-21T19:46:09.811Z,33.30
2019-04-21T19:48:47.510Z,33.90
2019-04-21T19:51:11.818Z,32.60
2019-04-21T19:53:35.642Z,32.90
2019-04-21T19:55:50.321Z,32.50
2019-04-21T19:58:19.466Z,32.80
2019-04-21T20:00:50.840Z,32.90
2019-04-21T20:03:19.179Z,32.40
2019-04-21T20:06:00.172Z,31.40
2019-04-21T20:08:34.387Z,30.70
2019-04-21T20:11:11.863Z,30.30
2019-04-21T20:13:45.334Z,29.80
2019-04-21T20:16:11.618Z,29.70
2019-04-21T20:18:27.238Z,29.50
2019-04-21T20:20:48.120Z,29.90
2019-04-21T20:23:21.927Z,30.10
2019-04-21T20:25:49.815Z,30.30
2019-04-21T20:28:27.164Z,30.70
2019-04-21T20:31:03.893Z,30.20
2019-04-21T20:33:49.070Z,30.20
2019-04-21T20:36:01.387Z,30.80
2019-04-21T20:38:24.758Z,31.20
2019-04-21T20:40:52.404Z,31.70
2019-04-21T20:43:32.091Z,31.40
2019-04-21T20:46:02.368Z,31.60
2019-04-21T20:48:21.247Z,32.20
2019-04-21T20:51:01.827Z,32.50
2019-04-21T20:53:26.865Z,32.70
2019-04-21T20:55:53.074Z,31.50
2019-04-21T20:58:23.541Z,31.50
2019-04-21T21:01:18.994Z,32.20
2019-04-21T21:03:24.283Z,32.10
2019-04-21T21:05:49.392Z,32.60
2019-04-21T21:08:31.163Z,34.10
2019-04-21T21:10:51.141Z,34.80
2019-04-21T21:13:32.136Z,35.40
2019-04-21T21:16:06.146Z,35.50
2019-04-21T21:18:41.049Z,35.00
2019-04-21T21:20:56.482Z,35.20
2019-04-21T21:23:14.184Z,35.50
2019-04-21T21:25:50.943Z,35.60
2019-04-21T21:28:21.851Z,35.90
2019-04-21T21:30:43.220Z,36.60
2019-04-21T21:33:21.712Z,37.00
2019-04-21T21:35:42.438Z,37.40
2019-04-21T21:38:19.962Z,37.20
2019-04-21T21:40:45.445Z,37.10
2019-04-21T21:43:06.873Z,37.50
2019-04-21T21:45:39.469Z,37.40
2019-04-21T21:48:18.681Z,38.40
2019-04-21T21:50:42.082Z,38.60
2019-04-21T21:53:07.798Z,39.00
2019-04-21T21:55:32.324Z,39.50
2019-04-21T21:58:03.509Z,39.00
2019-04-21T22:00:30.169Z,39.50
2019-04-21T22:03:13.670Z,40.60
2019-04-21T22:05:37.538Z,40.20
2019-04-21T22:08:00.454Z,40.40
2019-04-21T22:10:29.392Z,41.20
2019-04-21T22:13:04.012Z,40.00
2019-04-21T22:15:29.894Z,40.70
2019-04-21T22:18:22.526Z,40.40
2019-04-21T22:20:44.476Z,40.90
2019-04-21T22:23:02.079Z,40.80
2019-04-21T22:25:29.513Z,40.90
2019-04-21T22:27:55.703Z,41.00
2019-04-21T22:30:29.032Z,42.00
2019-04-21T22:33:00.737Z,42.70
2019-04-21T22:35:31.508Z,42.00
2019-04-21T22:38:10.205Z,42.50
2019-04-21T22:40:33.904Z,42.40
2019-04-21T22:43:04.933Z,42.40
2019-04-21T22:45:20.861Z,41.40
2019-04-21T22:47:49.441Z,41.90
2019-04-21T22:50:28.599Z,41.60
2019-04-21T22:52:59.455Z,42.00
2019-04-21T22:55:27.873Z,42.50
2019-04-21T22:57:58.661Z,42.70
2019-04-21T23:00:25.731Z,42.20
2019-04-21T23:03:05.195Z,43.10
2019-04-21T23:05:30.252Z,43.60
2019-04-21T23:07:58.643Z,43.10
2019-04-21T23:10:23.628Z,43.90
2019-04-21T23:12:52.167Z,43.80
2019-04-21T23:15:24.624Z,43.80
2019-04-21T23:18:08.015Z,44.90
2019-04-21T23:20:42.007Z,44.40
2019-04-21T23:23:15.369Z,45.30
2019-04-21T23:25:39.240Z,44.80
2019-04-21T23:28:08.813Z,45.40
2019-04-21T23:30:44.826Z,45.90
2019-04-21T23:32:57.058Z,45.50
2019-04-21T23:35:25.764Z,46.10
2019-04-21T23:37:54.309Z,46.40
2019-04-21T23:40:21.815Z,47.00
2019-04-21T23:42:49.159Z,46.20
2019-04-21T23:45:23.926Z,46.70
2019-04-21T23:48:06.992Z,46.80
2019-04-21T23:50:30.105Z,45.80
2019-04-21T23:52:47.769Z,46.80
2019-04-21T23:55:16.924Z,46.80
2019-04-21T23:57:47.151Z,47.90
